createdAt,value
2018-12-30T00:00:09.414Z,11.97
2018-12-30T00:02:37.815Z,12.08
2018-12-30T00:05:04.611Z,11.97
2018-12-30T00:07:31.147Z,12.26
2018-12-30T00:09:57.298Z,11.75
2018-12-30T00:12:23.436Z,12.01
2018-12-30T00:14:49.531Z,11.69
2018-12-30T00:17:15.970Z,11.99
2018-12-30T00:19:42.307Z,11.78
2018-12-30T00:22:09.191Z,11.83
2018-12-30T00:24:35.278Z,11.97
2018-12-30T00:27:01.379Z,11.72
2018-12-30T00:29:27.518Z,11.83
2018-12-30T00:31:53.910Z,12.01
2018-12-30T00:34:20.339Z,11.86
2018-12-30T00:36:46.667Z,11.79
2018-12-30T00:39:13.183Z,12.14
2018-12-30T00:41:39.544Z,11.83
2018-12-30T00:44:05.671Z,12.41
2018-12-30T00:46:32.017Z,12.65
2018-12-30T00:48:58.158Z,12.43
2018-12-30T00:51:24.230Z,12.69
2018-12-30T00:53:50.355Z,12.71
2018-12-30T00:56:16.864Z,12.43
2018-12-30T00:58:43.422Z,12.62
2018-12-30T01:01:09.792Z,12.58
2018-12-30T01:03:35.926Z,12.44
2018-12-30T01:06:02.327Z,12.23
2018-12-30T01:08:28.698Z,12.53
2018-12-30T01:10:55.092Z,12.55
2018-12-30T01:13:21.836Z,12.54
2018-12-30T01:15:48.360Z,12.39
2018-12-30T01:18:14.908Z,12.34
2018-12-30T01:20:40.975Z,12.58
2018-12-30T01:23:07.495Z,12.33
2018-12-30T01:25:33.898Z,12.22
2018-12-30T01:28:00.009Z,12.23
2018-12-30T01:30:26.316Z,12.27
2018-12-30T01:32:52.451Z,12.33
2018-12-30T01:35:19.125Z,12.37
2018-12-30T01:37:45.656Z,12.28
2018-12-30T01:40:12.086Z,12.56
2018-12-30T01:42:38.181Z,12.45
2018-12-30T01:45:04.639Z,12.41
2018-12-30T01:47:30.739Z,11.95
2018-12-30T01:49:56.837Z,12.39
2018-12-30T01:52:23.214Z,12.41
2018-12-30T01:54:49.662Z,11.96
2018-12-30T01:57:16.088Z,12.01
2018-12-30T01:59:42.530Z,12.17
2018-12-30T02:02:09.484Z,12.36
2018-12-30T02:04:35.569Z,12.34
2018-12-30T02:07:01.673Z,12.33
2018-12-30T02:09:27.770Z,12.28
2018-12-30T02:11:55.038Z,12.18
2018-12-30T02:14:21.443Z,12.35
2018-12-30T02:16:47.829Z,12.21
2018-12-30T02:19:13.952Z,12.11
2018-12-30T02:21:41.245Z,12.24
2018-12-30T02:24:07.564Z,12.29
2018-12-30T02:26:33.643Z,12.13
2018-12-30T02:29:00.038Z,12.13
2018-12-30T02:31:26.504Z,12.39
2018-12-30T02:33:53.029Z,12.44
2018-12-30T02:36:19.133Z,12.28
2018-12-30T02:38:45.218Z,12.19
2018-12-30T02:41:11.306Z,12.35
2018-12-30T02:43:37.409Z,12.33
2018-12-30T02:46:03.501Z,12.09
2018-12-30T02:48:29.884Z,12.05
2018-12-30T02:50:56.011Z,12.12
2018-12-30T02:53:22.087Z,12.15
2018-12-30T02:55:48.207Z,12.04
2018-12-30T02:58:14.559Z,12.01
2018-12-30T03:00:40.618Z,12.11
2018-12-30T03:03:07.723Z,12.08
2018-12-30T03:05:34.194Z,12.18
2018-12-30T03:08:00.626Z,12.26
2018-12-30T03:10:26.737Z,12.30
2018-12-30T03:12:53.185Z,12.21
2018-12-30T03:15:19.293Z,11.93
2018-12-30T03:17:45.757Z,11.96
2018-12-30T03:20:11.847Z,12.18
2018-12-30T03:22:37.955Z,11.95
2018-12-30T03:25:04.308Z,12.19
2018-12-30T03:27:30.332Z,12.43
2018-12-30T03:29:56.688Z,12.38
2018-12-30T03:32:22.696Z,12.51
2018-12-30T03:34:49.154Z,12.24
2018-12-30T03:37:15.558Z,12.26
2018-12-30T03:39:41.584Z,12.17
2018-12-30T03:42:07.671Z,12.16
2018-12-30T03:44:33.701Z,12.32
2018-12-30T03:46:59.777Z,12.46
2018-12-30T03:49:26.199Z,12.11
2018-12-30T03:51:52.541Z,12.12
2018-12-30T03:54:18.609Z,12.23
2018-12-30T03:56:44.670Z,12.27
2018-12-30T03:59:11.121Z,12.46
2018-12-30T04:01:37.447Z,12.56
2018-12-30T04:04:03.574Z,12.39
2018-12-30T04:06:29.689Z,12.45
2018-12-30T04:08:56.130Z,12.37
2018-12-30T04:11:22.164Z,12.44
2018-12-30T04:13:48.194Z,12.37
2018-12-30T04:16:14.322Z,12.23
2018-12-30T04:18:40.413Z,12.15
2018-12-30T04:21:06.546Z,12.34
2018-12-30T04:23:32.889Z,12.38
2018-12-30T04:25:58.928Z,12.38
2018-12-30T04:28:24.955Z,12.27
2018-12-30T04:30:51.062Z,12.35
2018-12-30T04:33:17.201Z,12.21
2018-12-30T04:35:43.630Z,12.39
2018-12-30T04:38:09.660Z,12.48
2018-12-30T04:40:35.745Z,12.46
2018-12-30T04:43:01.783Z,12.58
2018-12-30T04:45:27.878Z,12.20
2018-12-30T04:47:54.374Z,12.28
2018-12-30T04:50:20.458Z,12.55
2018-12-30T04:52:46.489Z,12.71
2018-12-30T04:55:12.516Z,12.67
2018-12-30T04:57:38.908Z,12.74
2018-12-30T05:00:04.957Z,12.64
2018-12-30T05:02:31.052Z,12.70
2018-12-30T05:04:57.352Z,12.68
2018-12-30T05:07:23.681Z,12.69
2018-12-30T05:09:50.125Z,12.69
2018-12-30T05:12:16.238Z,12.81
2018-12-30T05:14:42.344Z,12.81
2018-12-30T05:17:08.502Z,12.92
2018-12-30T05:19:34.691Z,13.22
2018-12-30T05:22:00.758Z,13.15
2018-12-30T05:24:26.831Z,13.03
2018-12-30T05:26:52.960Z,13.24
2018-12-30T05:29:19.066Z,13.59
2018-12-30T05:31:45.182Z,13.61
2018-12-30T05:34:11.202Z,13.33
2018-12-30T05:36:37.502Z,13.35
2018-12-30T05:39:03.533Z,13.35
2018-12-30T05:41:29.976Z,13.25
2018-12-30T05:43:56.009Z,13.14
2018-12-30T05:46:22.112Z,13.01
2018-12-30T05:48:48.215Z,13.51
2018-12-30T05:51:14.689Z,13.47
2018-12-30T05:53:41.107Z,13.44
2018-12-30T05:56:07.149Z,13.38
2018-12-30T05:58:33.580Z,13.35
2018-12-30T06:00:59.999Z,13.47
2018-12-30T06:03:26.084Z,13.31
2018-12-30T06:05:52.587Z,13.43
2018-12-30T06:08:18.681Z,13.43
2018-12-30T06:10:44.768Z,13.69
2018-12-30T06:13:10.865Z,13.31
2018-12-30T06:15:37.201Z,13.35
2018-12-30T06:18:03.320Z,13.24
2018-12-30T06:20:29.438Z,13.39
2018-12-30T06:22:55.522Z,13.28
2018-12-30T06:25:21.522Z,13.31
2018-12-30T06:27:47.829Z,13.33
2018-12-30T06:30:13.904Z,13.11
2018-12-30T06:32:40.216Z,13.23
2018-12-30T06:35:06.319Z,13.08
2018-12-30T06:37:32.414Z,12.80
2018-12-30T06:39:58.440Z,12.61
2018-12-30T06:42:24.469Z,12.91
2018-12-30T06:44:50.486Z,12.56
2018-12-30T06:47:16.781Z,12.93
2018-12-30T06:49:42.866Z,12.78
2018-12-30T06:52:09.223Z,12.85
2018-12-30T06:54:35.301Z,12.73
2018-12-30T06:57:01.337Z,12.72
2018-12-30T06:59:27.687Z,12.92
2018-12-30T07:01:53.796Z,12.92
2018-12-30T07:04:19.917Z,12.98
2018-12-30T07:06:45.990Z,12.86
2018-12-30T07:09:12.392Z,12.84
2018-12-30T07:11:38.426Z,12.63
2018-12-30T07:14:04.753Z,12.91
2018-12-30T07:16:31.112Z,12.90
2018-12-30T07:18:57.267Z,13.00
2018-12-30T07:21:23.409Z,12.82
2018-12-30T07:23:49.944Z,13.04
2018-12-30T07:26:16.040Z,12.95
2018-12-30T07:28:42.173Z,12.86
2018-12-30T07:31:08.329Z,12.79
2018-12-30T07:33:34.372Z,13.06
2018-12-30T07:36:00.769Z,13.07
2018-12-30T07:38:26.869Z,13.03
2018-12-30T07:40:52.898Z,12.93
2018-12-30T07:43:19.287Z,12.80
2018-12-30T07:45:45.439Z,12.76
2018-12-30T07:48:11.543Z,12.95
2018-12-30T07:50:37.637Z,13.01
2018-12-30T07:53:04.190Z,12.73
2018-12-30T07:55:30.272Z,12.71
2018-12-30T07:57:56.303Z,12.44
2018-12-30T08:00:24.577Z,12.33
2018-12-30T08:02:50.668Z,12.60
2018-12-30T08:05:16.783Z,12.79
2018-12-30T08:07:43.130Z,12.63
2018-12-30T08:10:09.225Z,12.53
2018-12-30T08:12:35.329Z,12.42
2018-12-30T08:15:01.427Z,12.59
2018-12-30T08:17:27.823Z,12.65
2018-12-30T08:19:53.945Z,12.78
2018-12-30T08:22:20.330Z,13.03
2018-12-30T08:24:46.419Z,12.83
2018-12-30T08:27:12.576Z,12.73
2018-12-30T08:29:38.715Z,12.88
2018-12-30T08:32:04.785Z,12.92
2018-12-30T08:34:30.863Z,12.96
2018-12-30T08:36:56.952Z,12.69
2018-12-30T08:39:23.151Z,12.68
2018-12-30T08:41:49.201Z,12.65
2018-12-30T08:44:15.299Z,12.71
2018-12-30T08:46:41.434Z,12.79
2018-12-30T08:49:07.852Z,12.73
2018-12-30T08:51:34.383Z,12.78
2018-12-30T08:54:00.587Z,12.75
2018-12-30T08:56:26.757Z,12.90
2018-12-30T08:58:52.867Z,12.66
2018-12-30T09:01:19.247Z,12.77
2018-12-30T09:03:45.351Z,12.78
2018-12-30T09:06:11.547Z,12.91
2018-12-30T09:08:37.579Z,12.91
2018-12-30T09:11:03.971Z,12.29
2018-12-30T09:13:30.361Z,11.62
2018-12-30T09:15:56.753Z,12.16
2018-12-30T09:18:22.810Z,12.67
2018-12-30T09:20:52.191Z,12.66
2018-12-30T09:23:19.293Z,12.67
2018-12-30T09:25:45.841Z,12.57
2018-12-30T09:28:11.932Z,12.66
2018-12-30T09:30:38.075Z,12.40
2018-12-30T09:33:04.446Z,12.50
2018-12-30T09:35:30.813Z,12.22
2018-12-30T09:37:56.931Z,12.19
2018-12-30T09:40:23.231Z,12.29
2018-12-30T09:42:49.296Z,12.47
2018-12-30T09:45:15.441Z,12.70
2018-12-30T09:47:41.539Z,12.77
2018-12-30T09:50:07.911Z,12.67
2018-12-30T09:52:34.332Z,12.65
2018-12-30T09:55:00.393Z,12.81
2018-12-30T09:57:26.486Z,12.61
2018-12-30T09:59:52.982Z,12.73
2018-12-30T10:02:19.065Z,12.45
2018-12-30T10:04:45.318Z,12.61
2018-12-30T10:07:11.731Z,12.59
2018-12-30T10:09:38.147Z,12.49
2018-12-30T10:12:04.251Z,12.66
2018-12-30T10:14:30.382Z,12.61
2018-12-30T10:16:56.462Z,12.90
2018-12-30T10:19:22.857Z,12.84
2018-12-30T10:21:49.255Z,12.74
2018-12-30T10:24:15.310Z,13.10
2018-12-30T10:26:41.628Z,13.08
2018-12-30T10:29:07.779Z,13.07
2018-12-30T10:31:34.128Z,12.54
2018-12-30T10:34:00.262Z,12.71
2018-12-30T10:36:26.539Z,12.82
2018-12-30T10:38:52.745Z,12.92
2018-12-30T10:41:18.814Z,12.30
2018-12-30T10:43:53.701Z,12.49
2018-12-30T10:49:05.004Z,12.79
2018-12-30T10:51:31.214Z,12.97
2018-12-30T10:54:00.796Z,13.12
2018-12-30T10:56:25.465Z,13.15
2018-12-30T10:58:51.601Z,13.08
2018-12-30T11:01:17.982Z,13.14
2018-12-30T11:03:44.426Z,13.16
2018-12-30T11:06:10.566Z,12.98
2018-12-30T11:08:36.680Z,13.04
2018-12-30T11:11:02.818Z,13.15
2018-12-30T11:13:46.993Z,12.93
2018-12-30T11:16:13.132Z,13.00
2018-12-30T11:18:39.550Z,13.16
2018-12-30T11:21:06.011Z,13.33
2018-12-30T11:23:32.521Z,13.13
2018-12-30T11:25:58.991Z,13.11
2018-12-30T11:28:25.498Z,13.08
2018-12-30T11:30:51.855Z,13.27
2018-12-30T11:33:18.395Z,13.23
2018-12-30T11:35:44.626Z,13.15
2018-12-30T11:38:10.761Z,13.38
2018-12-30T11:40:37.145Z,13.33
2018-12-30T11:43:03.511Z,13.28
2018-12-30T11:45:29.900Z,13.72
2018-12-30T11:47:56.026Z,13.56
2018-12-30T11:50:22.459Z,13.43
2018-12-30T11:52:48.950Z,13.45
2018-12-30T11:55:15.330Z,13.42
2018-12-30T11:57:41.444Z,13.38
2018-12-30T12:00:07.924Z,13.45
2018-12-30T12:02:34.440Z,13.75
2018-12-30T12:05:00.462Z,13.73
2018-12-30T12:07:26.585Z,13.71
2018-12-30T12:09:52.613Z,13.46
2018-12-30T12:12:19.041Z,13.50
2018-12-30T12:14:45.332Z,13.50
2018-12-30T12:17:11.706Z,13.70
2018-12-30T12:19:39.242Z,13.78
2018-12-30T12:22:05.306Z,13.70
2018-12-30T12:24:31.711Z,13.94
2018-12-30T12:26:57.836Z,13.28
2018-12-30T12:29:23.915Z,13.38
2018-12-30T12:31:50.278Z,13.42
2018-12-30T12:34:17.557Z,13.68
2018-12-30T12:36:44.086Z,13.53
2018-12-30T12:39:10.522Z,13.47
2018-12-30T12:41:43.812Z,13.35
2018-12-30T12:44:09.869Z,13.62
2018-12-30T12:46:36.562Z,13.78
2018-12-30T12:49:02.674Z,13.41
2018-12-30T12:51:29.025Z,13.45
2018-12-30T12:53:55.515Z,13.35
2018-12-30T12:56:21.654Z,13.74
2018-12-30T12:58:48.251Z,13.84
2018-12-30T13:01:14.677Z,13.81
2018-12-30T13:03:40.796Z,13.78
2018-12-30T13:06:07.398Z,13.62
2018-12-30T13:08:33.513Z,13.66
2018-12-30T13:10:59.636Z,13.74
2018-12-30T13:13:25.802Z,13.77
2018-12-30T13:15:52.201Z,13.91
2018-12-30T13:18:18.702Z,13.53
2018-12-30T13:20:45.296Z,13.59
2018-12-30T13:23:12.597Z,13.57
2018-12-30T13:25:39.071Z,13.87
2018-12-30T13:28:05.184Z,14.02
2018-12-30T13:30:31.336Z,13.86
2018-12-30T13:32:57.562Z,13.90
2018-12-30T13:35:23.645Z,13.81
2018-12-30T13:37:50.175Z,13.97
2018-12-30T13:40:16.362Z,13.90
2018-12-30T13:42:42.820Z,13.77
2018-12-30T13:45:09.222Z,13.93
2018-12-30T13:47:35.326Z,13.46
2018-12-30T13:50:01.577Z,13.87
2018-12-30T13:52:27.862Z,13.89
2018-12-30T13:54:55.258Z,13.96
2018-12-30T13:57:23.687Z,13.79
2018-12-30T13:59:49.851Z,13.83
2018-12-30T14:02:16.265Z,13.69
2018-12-30T14:04:42.392Z,13.77
2018-12-30T14:07:08.959Z,13.72
2018-12-30T14:09:35.870Z,13.63
2018-12-30T14:12:01.981Z,13.69
2018-12-30T14:14:28.334Z,13.74
2018-12-30T14:16:54.887Z,13.70
2018-12-30T14:19:21.339Z,13.87
2018-12-30T14:21:47.467Z,13.88
2018-12-30T14:24:13.596Z,13.80
2018-12-30T14:26:40.095Z,13.86
2018-12-30T14:29:06.299Z,13.85
2018-12-30T14:31:32.450Z,13.71
2018-12-30T14:33:58.848Z,13.68
2018-12-30T14:36:24.975Z,13.64
2018-12-30T14:38:51.105Z,13.76
2018-12-30T14:41:17.219Z,13.67
2018-12-30T14:43:43.382Z,13.47
2018-12-30T14:46:09.800Z,13.52
2018-12-30T14:48:36.213Z,13.62
2018-12-30T14:51:02.316Z,13.63
2018-12-30T14:53:28.474Z,13.74
2018-12-30T14:55:55.007Z,13.69
2018-12-30T14:58:21.550Z,13.49
2018-12-30T15:00:47.852Z,13.58
2018-12-30T15:03:14.219Z,13.89
2018-12-30T15:05:40.350Z,13.24
2018-12-30T15:08:06.532Z,13.60
2018-12-30T15:10:32.695Z,13.53
2018-12-30T15:12:59.044Z,13.81
2018-12-30T15:15:25.118Z,13.72
2018-12-30T15:17:51.333Z,13.72
2018-12-30T15:20:17.472Z,13.45
2018-12-30T15:22:45.439Z,13.70
2018-12-30T15:25:12.158Z,13.51
2018-12-30T15:27:38.368Z,13.48
2018-12-30T15:30:07.099Z,13.60
2018-12-30T15:32:33.613Z,13.33
2018-12-30T15:34:59.721Z,13.63
2018-12-30T15:37:25.790Z,13.65
2018-12-30T15:39:52.214Z,13.66
2018-12-30T15:42:18.967Z,13.69
2018-12-30T15:44:45.562Z,13.61
2018-12-30T15:47:11.753Z,13.77
2018-12-30T15:49:38.191Z,13.61
2018-12-30T15:52:04.266Z,13.82
2018-12-30T15:54:30.725Z,13.88
2018-12-30T15:56:56.842Z,13.82
2018-12-30T15:59:22.907Z,13.65
2018-12-30T16:01:49.076Z,13.83
2018-12-30T16:04:15.129Z,13.93
2018-12-30T16:06:41.288Z,13.96
2018-12-30T16:09:07.910Z,13.64
2018-12-30T16:11:34.190Z,13.65
2018-12-30T16:14:00.668Z,13.70
2018-12-30T16:16:26.874Z,13.74
2018-12-30T16:18:53.377Z,13.65
2018-12-30T16:21:19.509Z,13.88
2018-12-30T16:23:45.614Z,13.90
2018-12-30T16:26:12.018Z,13.73
2018-12-30T16:28:38.025Z,13.64
2018-12-30T16:31:04.141Z,13.83
2018-12-30T16:33:30.146Z,13.88
2018-12-30T16:35:57.298Z,13.95
2018-12-30T16:38:23.401Z,13.93
2018-12-30T16:40:49.976Z,14.07
2018-12-30T16:43:16.255Z,14.19
2018-12-30T16:45:42.661Z,13.72
2018-12-30T16:48:08.768Z,13.98
2018-12-30T16:53:18.210Z,13.88
2018-12-30T16:55:43.575Z,13.24
2018-12-30T16:58:09.737Z,13.74
2018-12-30T17:00:36.194Z,13.49
2018-12-30T17:03:02.229Z,13.69
2018-12-30T17:05:28.690Z,13.59
2018-12-30T17:07:55.099Z,13.71
2018-12-30T17:10:21.395Z,13.71
2018-12-30T17:12:47.472Z,13.76
2018-12-30T17:15:13.555Z,13.62
2018-12-30T17:17:39.671Z,13.84
2018-12-30T17:20:06.070Z,13.75
2018-12-30T17:22:32.161Z,13.80
2018-12-30T17:24:58.322Z,13.82
2018-12-30T17:27:24.735Z,13.91
2018-12-30T17:29:50.798Z,13.91
2018-12-30T17:32:16.993Z,13.74
2018-12-30T17:34:43.489Z,13.64
2018-12-30T17:37:09.588Z,13.70
2018-12-30T17:39:35.733Z,13.51
2018-12-30T17:42:02.012Z,13.72
2018-12-30T17:44:28.451Z,13.82
2018-12-30T17:46:54.661Z,13.76
2018-12-30T17:49:20.726Z,13.69
2018-12-30T17:51:47.233Z,13.85
2018-12-30T17:54:15.329Z,13.72
2018-12-30T17:56:41.429Z,13.96
2018-12-30T17:59:07.526Z,13.72
2018-12-30T18:01:33.632Z,13.92
2018-12-30T18:03:59.666Z,13.75
2018-12-30T18:06:25.705Z,13.58
2018-12-30T18:08:51.809Z,13.79
2018-12-30T18:11:17.885Z,13.77
2018-12-30T18:13:43.949Z,13.70
2018-12-30T18:16:10.062Z,13.50
2018-12-30T18:18:36.543Z,13.60
2018-12-30T18:21:02.929Z,13.59
2018-12-30T18:23:29.731Z,13.62
2018-12-30T18:25:58.682Z,14.03
2018-12-30T18:28:23.495Z,13.86
2018-12-30T18:30:49.589Z,13.76
2018-12-30T18:33:17.679Z,13.69
2018-12-30T18:35:43.693Z,13.82
2018-12-30T18:38:09.726Z,13.92
2018-12-30T18:40:36.270Z,13.90
2018-12-30T18:43:02.380Z,13.93
2018-12-30T18:45:28.397Z,13.59
2018-12-30T18:47:54.429Z,13.61
2018-12-30T18:50:20.834Z,13.67
2018-12-30T18:52:46.918Z,13.63
2018-12-30T18:55:13.024Z,13.85
2018-12-30T18:57:39.142Z,13.83
2018-12-30T19:00:05.527Z,13.75
2018-12-30T19:02:31.772Z,13.72
2018-12-30T19:04:58.203Z,13.70
2018-12-30T19:07:24.226Z,13.89
2018-12-30T19:09:50.255Z,13.61
2018-12-30T19:12:16.329Z,13.57
2018-12-30T19:14:42.437Z,13.63
2018-12-30T19:17:08.557Z,13.62
2018-12-30T19:19:34.582Z,13.88
2018-12-30T19:22:00.979Z,13.78
2018-12-30T19:24:27.080Z,13.62
2018-12-30T19:26:53.189Z,13.58
2018-12-30T19:29:19.574Z,13.56
2018-12-30T19:31:45.995Z,13.45
2018-12-30T19:34:12.069Z,13.77
2018-12-30T19:36:38.450Z,13.52
2018-12-30T19:39:04.557Z,13.59
2018-12-30T19:41:30.702Z,13.43
2018-12-30T19:43:56.762Z,13.44
2018-12-30T19:46:22.784Z,13.53
2018-12-30T19:48:48.825Z,13.54
2018-12-30T19:51:15.215Z,13.47
2018-12-30T19:53:41.647Z,13.45
2018-12-30T19:56:07.982Z,13.79
2018-12-30T19:58:34.411Z,13.60
2018-12-30T20:01:02.894Z,13.54
2018-12-30T20:03:28.944Z,13.65
2018-12-30T20:05:55.350Z,13.60
2018-12-30T20:08:21.839Z,13.43
2018-12-30T20:10:48.216Z,13.27
2018-12-30T20:13:14.278Z,13.30
2018-12-30T20:15:40.342Z,12.99
2018-12-30T20:18:06.777Z,13.31
2018-12-30T20:20:33.128Z,13.44
2018-12-30T20:23:00.432Z,13.36
2018-12-30T20:25:26.529Z,13.49
2018-12-30T20:27:52.552Z,13.47
2018-12-30T20:30:18.575Z,13.54
2018-12-30T20:32:44.606Z,13.44
2018-12-30T20:35:11.006Z,13.61
2018-12-30T20:37:37.365Z,13.52
2018-12-30T20:40:03.787Z,13.56
2018-12-30T20:42:30.216Z,13.52
2018-12-30T20:44:56.310Z,13.54
2018-12-30T20:47:22.678Z,13.47
2018-12-30T20:49:48.724Z,13.34
2018-12-30T20:52:14.957Z,13.47
2018-12-30T20:54:41.014Z,13.43
2018-12-30T20:57:07.043Z,13.33
2018-12-30T20:59:33.130Z,13.39
2018-12-30T21:01:59.435Z,13.42
2018-12-30T21:04:25.889Z,13.31
2018-12-30T21:06:52.014Z,13.36
2018-12-30T21:09:18.442Z,13.11
2018-12-30T21:11:44.870Z,13.26
2018-12-30T21:14:10.958Z,13.34
2018-12-30T21:16:37.042Z,13.12
2018-12-30T21:19:03.070Z,13.00
2018-12-30T21:21:29.612Z,13.17
2018-12-30T21:23:55.849Z,12.85
2018-12-30T21:26:22.433Z,13.01
2018-12-30T21:28:48.510Z,12.94
2018-12-30T21:31:15.514Z,12.80
2018-12-30T21:33:41.868Z,12.77
2018-12-30T21:36:07.873Z,12.98
2018-12-30T21:38:34.035Z,13.21
2018-12-30T21:41:00.378Z,13.03
2018-12-30T21:43:26.521Z,13.07
2018-12-30T21:45:52.562Z,13.10
2018-12-30T21:48:19.013Z,12.88
2018-12-30T21:50:45.566Z,13.09
2018-12-30T21:53:11.587Z,12.90
2018-12-30T21:55:37.706Z,12.96
2018-12-30T21:58:03.799Z,13.15
2018-12-30T22:00:31.010Z,12.96
2018-12-30T22:02:57.097Z,13.04
2018-12-30T22:05:25.918Z,12.93
2018-12-30T22:07:52.074Z,13.15
2018-12-30T22:10:18.195Z,13.20
2018-12-30T22:12:44.880Z,12.96
2018-12-30T22:15:10.956Z,12.73
2018-12-30T22:17:37.044Z,12.65
2018-12-30T22:20:03.468Z,12.50
2018-12-30T22:22:29.567Z,12.58
2018-12-30T22:24:55.761Z,12.77
2018-12-30T22:27:21.909Z,12.83
2018-12-30T22:29:50.110Z,12.74
2018-12-30T22:32:16.456Z,12.77
2018-12-30T22:34:42.764Z,12.50
2018-12-30T22:37:08.930Z,12.75
2018-12-30T22:39:35.392Z,12.88
2018-12-30T22:42:04.862Z,12.97
2018-12-30T22:44:32.139Z,12.82
2018-12-30T22:46:58.205Z,13.21
2018-12-30T22:49:24.596Z,13.14
2018-12-30T22:51:50.724Z,12.95
2018-12-30T22:54:16.810Z,12.73
2018-12-30T22:56:43.367Z,12.65
2018-12-30T22:59:09.439Z,12.45
2018-12-30T23:01:35.907Z,12.83
2018-12-30T23:04:02.039Z,12.79
2018-12-30T23:06:28.494Z,12.72
2018-12-30T23:08:54.605Z,12.68
2018-12-30T23:11:20.682Z,12.82
2018-12-30T23:13:46.720Z,12.83
2018-12-30T23:16:12.846Z,12.67
2018-12-30T23:18:39.332Z,12.56
2018-12-30T23:21:07.075Z,12.44
2018-12-30T23:23:33.152Z,12.51
2018-12-30T23:25:59.527Z,12.40
2018-12-30T23:28:26.006Z,12.54
2018-12-30T23:30:52.016Z,12.68
2018-12-30T23:33:18.426Z,12.75
2018-12-30T23:35:44.846Z,12.70
2018-12-30T23:38:10.928Z,12.61
2018-12-30T23:40:37.016Z,12.48
2018-12-30T23:43:03.433Z,12.46
2018-12-30T23:45:29.448Z,12.50
2018-12-30T23:47:55.568Z,12.46
2018-12-30T23:50:21.653Z,12.39
2018-12-30T23:52:47.719Z,12.41
2018-12-30T23:55:13.747Z,12.37
2018-12-30T23:57:39.863Z,12.33
